sensor_id;sensor_type;location;lat;lon;timestamp;P1;durP1;ratioP1;P2;durP2;ratioP2
76393;SDS011;65216;51.090;-115.352;2023-02-15T00:00:10;9.70;;;1.60;;
76393;SDS011;65216;51.090;-115.352;2023-02-15T00:02:39;17.30;;;1.90;;
76393;SDS011;65216;51.090;-115.352;2023-02-15T00:05:07;12.60;;;1.30;;
76393;SDS011;65216;51.090;-115.352;2023-02-15T00:07:39;12.00;;;1.60;;
76393;SDS011;65216;51.090;-115.352;2023-02-15T00:10:07;13.20;;;1.60;;
76393;SDS011;65216;51.090;-115.352;2023-02-15T00:12:41;14.50;;;1.50;;
76393;SDS011;65216;51.090;-115.352;2023-02-15T00:15:13;13.70;;;1.80;;
76393;SDS011;65216;51.090;-115.352;2023-02-15T00:17:47;9.10;;;1.50;;
76393;SDS011;65216;51.090;-115.352;2023-02-15T00:20:15;15.60;;;1.60;;
76393;SDS011;65216;51.090;-115.352;2023-02-15T00:22:44;13.30;;;1.70;;
76393;SDS011;65216;51.090;-115.352;2023-02-15T00:25:11;9.80;;;2.00;;
76393;SDS011;65216;51.090;-115.352;2023-02-15T00:27:39;14.70;;;1.70;;
76393;SDS011;65216;51.090;-115.352;2023-02-15T00:30:07;13.20;;;1.70;;
76393;SDS011;65216;51.090;-115.352;2023-02-15T00:32:37;15.80;;;2.20;;
76393;SDS011;65216;51.090;-115.352;2023-02-15T00:35:05;13.30;;;1.80;;
76393;SDS011;65216;51.090;-115.352;2023-02-15T00:37:37;14.10;;;1.90;;
76393;SDS011;65216;51.090;-115.352;2023-02-15T00:40:05;21.70;;;2.20;;
76393;SDS011;65216;51.090;-115.352;2023-02-15T00:42:33;17.20;;;2.40;;
76393;SDS011;65216;51.090;-115.352;2023-02-15T00:45:00;12.50;;;2.20;;
76393;SDS011;65216;51.090;-115.352;2023-02-15T00:47:27;11.90;;;1.70;;
76393;SDS011;65216;51.090;-115.352;2023-02-15T00:49:58;21.40;;;2.10;;
76393;SDS011;65216;51.090;-115.352;2023-02-15T00:52:25;21.30;;;2.00;;
76393;SDS011;65216;51.090;-115.352;2023-02-15T00:54:56;19.40;;;2.10;;
76393;SDS011;65216;51.090;-115.352;2023-02-15T00:57:23;22.70;;;2.10;;
76393;SDS011;65216;51.090;-115.352;2023-02-15T00:59:50;16.80;;;2.10;;
76393;SDS011;65216;51.090;-115.352;2023-02-15T01:02:20;15.10;;;2.20;;
76393;SDS011;65216;51.090;-115.352;2023-02-15T01:04:51;15.60;;;2.00;;
76393;SDS011;65216;51.090;-115.352;2023-02-15T01:07:18;16.30;;;1.90;;
76393;SDS011;65216;51.090;-115.352;2023-02-15T01:09:46;16.90;;;2.20;;
76393;SDS011;65216;51.090;-115.352;2023-02-15T01:12:16;11.60;;;1.90;;
76393;SDS011;65216;51.090;-115.352;2023-02-15T01:14:46;11.60;;;1.90;;
76393;SDS011;65216;51.090;-115.352;2023-02-15T01:17:13;16.10;;;2.10;;
76393;SDS011;65216;51.090;-115.352;2023-02-15T01:19:40;15.60;;;2.20;;
76393;SDS011;65216;51.090;-115.352;2023-02-15T01:22:11;15.40;;;2.20;;
76393;SDS011;65216;51.090;-115.352;2023-02-15T01:24:38;14.90;;;2.20;;
76393;SDS011;65216;51.090;-115.352;2023-02-15T01:27:06;15.50;;;2.10;;
76393;SDS011;65216;51.090;-115.352;2023-02-15T01:29:36;16.10;;;2.30;;
76393;SDS011;65216;51.090;-115.352;2023-02-15T01:32:03;19.90;;;2.30;;
76393;SDS011;65216;51.090;-115.352;2023-02-15T01:34:34;19.70;;;2.20;;
76393;SDS011;65216;51.090;-115.352;2023-02-15T01:37:06;19.10;;;2.10;;
76393;SDS011;65216;51.090;-115.352;2023-02-15T01:39:34;13.40;;;2.00;;
76393;SDS011;65216;51.090;-115.352;2023-02-15T01:42:01;15.90;;;2.20;;
76393;SDS011;65216;51.090;-115.352;2023-02-15T01:44:54;26.20;;;2.70;;
76393;SDS011;65216;51.090;-115.352;2023-02-15T01:52:52;20.60;;;2.50;;
76393;SDS011;65216;51.090;-115.352;2023-02-15T01:55:34;18.30;;;2.30;;
76393;SDS011;65216;51.090;-115.352;2023-02-15T01:58:08;17.80;;;2.30;;
76393;SDS011;65216;51.090;-115.352;2023-02-15T02:00:36;16.30;;;2.00;;
76393;SDS011;65216;51.090;-115.352;2023-02-15T02:03:12;14.20;;;2.20;;
76393;SDS011;65216;51.090;-115.352;2023-02-15T02:05:40;17.10;;;2.30;;
76393;SDS011;65216;51.090;-115.352;2023-02-15T02:08:09;20.80;;;2.40;;
76393;SDS011;65216;51.090;-115.352;2023-02-15T02:10:36;16.60;;;2.30;;
76393;SDS011;65216;51.090;-115.352;2023-02-15T02:13:07;20.00;;;2.70;;
76393;SDS011;65216;51.090;-115.352;2023-02-15T02:15:43;16.50;;;2.20;;
76393;SDS011;65216;51.090;-115.352;2023-02-15T02:21:25;13.40;;;2.00;;
76393;SDS011;65216;51.090;-115.352;2023-02-15T02:41:55;27.10;;;3.10;;
76393;SDS011;65216;51.090;-115.352;2023-02-15T02:44:28;17.50;;;1.70;;
76393;SDS011;65216;51.090;-115.352;2023-02-15T02:47:26;16.80;;;2.00;;
76393;SDS011;65216;51.090;-115.352;2023-02-15T02:50:13;12.70;;;2.00;;
76393;SDS011;65216;51.090;-115.352;2023-02-15T02:52:49;19.50;;;2.10;;
76393;SDS011;65216;51.090;-115.352;2023-02-15T02:55:25;8.20;;;1.80;;
76393;SDS011;65216;51.090;-115.352;2023-02-15T03:00:40;10.40;;;1.90;;
76393;SDS011;65216;51.090;-115.352;2023-02-15T03:06:09;17.80;;;2.20;;
76393;SDS011;65216;51.090;-115.352;2023-02-15T03:08:48;16.70;;;1.80;;
76393;SDS011;65216;51.090;-115.352;2023-02-15T03:11:44;15.70;;;2.00;;
76393;SDS011;65216;51.090;-115.352;2023-02-15T03:14:14;19.70;;;2.00;;
76393;SDS011;65216;51.090;-115.352;2023-02-15T03:16:48;11.40;;;1.90;;
76393;SDS011;65216;51.090;-115.352;2023-02-15T03:19:27;14.90;;;2.20;;
76393;SDS011;65216;51.090;-115.352;2023-02-15T03:22:06;14.40;;;2.10;;
76393;SDS011;65216;51.090;-115.352;2023-02-15T03:25:02;18.00;;;2.30;;
76393;SDS011;65216;51.090;-115.352;2023-02-15T03:27:46;13.80;;;2.00;;
76393;SDS011;65216;51.090;-115.352;2023-02-15T03:30:21;18.20;;;2.30;;
76393;SDS011;65216;51.090;-115.352;2023-02-15T03:32:53;11.00;;;1.90;;
76393;SDS011;65216;51.090;-115.352;2023-02-15T03:35:26;15.40;;;2.20;;
76393;SDS011;65216;51.090;-115.352;2023-02-15T03:38:03;12.70;;;2.10;;
76393;SDS011;65216;51.090;-115.352;2023-02-15T03:40:41;15.70;;;2.10;;
76393;SDS011;65216;51.090;-115.352;2023-02-15T03:43:40;14.20;;;2.10;;
76393;SDS011;65216;51.090;-115.352;2023-02-15T03:46:52;20.60;;;1.90;;
76393;SDS011;65216;51.090;-115.352;2023-02-15T03:49:55;12.50;;;2.00;;
76393;SDS011;65216;51.090;-115.352;2023-02-15T03:52:29;11.10;;;2.00;;
76393;SDS011;65216;51.090;-115.352;2023-02-15T03:55:02;12.30;;;2.00;;
76393;SDS011;65216;51.090;-115.352;2023-02-15T03:57:29;15.10;;;1.80;;
76393;SDS011;65216;51.090;-115.352;2023-02-15T04:00:24;18.40;;;2.50;;
76393;SDS011;65216;51.090;-115.352;2023-02-15T04:06:03;11.70;;;1.80;;
76393;SDS011;65216;51.090;-115.352;2023-02-15T04:08:30;17.60;;;1.90;;
76393;SDS011;65216;51.090;-115.352;2023-02-15T04:11:16;18.50;;;2.10;;
76393;SDS011;65216;51.090;-115.352;2023-02-15T04:13:43;12.60;;;1.70;;
76393;SDS011;65216;51.090;-115.352;2023-02-15T04:16:11;12.90;;;1.90;;
76393;SDS011;65216;51.090;-115.352;2023-02-15T04:18:42;10.30;;;1.70;;
76393;SDS011;65216;51.090;-115.352;2023-02-15T04:21:30;7.20;;;1.40;;
76393;SDS011;65216;51.090;-115.352;2023-02-15T04:24:16;10.10;;;1.70;;
76393;SDS011;65216;51.090;-115.352;2023-02-15T04:27:03;10.70;;;1.50;;
76393;SDS011;65216;51.090;-115.352;2023-02-15T04:29:31;10.50;;;1.70;;
76393;SDS011;65216;51.090;-115.352;2023-02-15T04:32:00;8.80;;;1.50;;
76393;SDS011;65216;51.090;-115.352;2023-02-15T04:34:28;11.00;;;1.70;;
76393;SDS011;65216;51.090;-115.352;2023-02-15T04:36:55;8.80;;;1.40;;
76393;SDS011;65216;51.090;-115.352;2023-02-15T04:39:23;11.80;;;2.20;;
76393;SDS011;65216;51.090;-115.352;2023-02-15T04:41:50;10.00;;;1.70;;
76393;SDS011;65216;51.090;-115.352;2023-02-15T04:44:18;9.40;;;1.60;;
76393;SDS011;65216;51.090;-115.352;2023-02-15T04:46:45;8.70;;;1.30;;
76393;SDS011;65216;51.090;-115.352;2023-02-15T04:49:13;9.30;;;1.50;;
76393;SDS011;65216;51.090;-115.352;2023-02-15T04:51:40;7.80;;;1.60;;
76393;SDS011;65216;51.090;-115.352;2023-02-15T04:54:07;7.40;;;1.50;;
76393;SDS011;65216;51.090;-115.352;2023-02-15T04:56:35;7.50;;;1.50;;
76393;SDS011;65216;51.090;-115.352;2023-02-15T04:59:03;4.30;;;1.50;;
76393;SDS011;65216;51.090;-115.352;2023-02-15T05:01:32;8.20;;;1.60;;
76393;SDS011;65216;51.090;-115.352;2023-02-15T05:04:02;6.70;;;1.50;;
76393;SDS011;65216;51.090;-115.352;2023-02-15T05:06:32;5.80;;;1.50;;
76393;SDS011;65216;51.090;-115.352;2023-02-15T05:08:59;5.80;;;1.50;;
76393;SDS011;65216;51.090;-115.352;2023-02-15T05:11:27;3.90;;;1.20;;
76393;SDS011;65216;51.090;-115.352;2023-02-15T05:13:54;8.00;;;1.50;;
76393;SDS011;65216;51.090;-115.352;2023-02-15T05:16:24;4.20;;;1.70;;
76393;SDS011;65216;51.090;-115.352;2023-02-15T05:18:53;3.50;;;1.10;;
76393;SDS011;65216;51.090;-115.352;2023-02-15T05:21:20;6.30;;;1.50;;
76393;SDS011;65216;51.090;-115.352;2023-02-15T05:23:50;3.80;;;1.40;;
76393;SDS011;65216;51.090;-115.352;2023-02-15T05:26:23;5.70;;;1.20;;
76393;SDS011;65216;51.090;-115.352;2023-02-15T05:29:12;5.60;;;1.40;;
76393;SDS011;65216;51.090;-115.352;2023-02-15T05:31:40;3.00;;;1.20;;
76393;SDS011;65216;51.090;-115.352;2023-02-15T05:34:10;6.00;;;1.40;;
76393;SDS011;65216;51.090;-115.352;2023-02-15T05:36:37;5.00;;;1.30;;
76393;SDS011;65216;51.090;-115.352;2023-02-15T05:39:04;4.50;;;1.30;;
76393;SDS011;65216;51.090;-115.352;2023-02-15T05:41:34;3.60;;;1.30;;
76393;SDS011;65216;51.090;-115.352;2023-02-15T05:44:07;6.10;;;1.30;;
76393;SDS011;65216;51.090;-115.352;2023-02-15T05:46:34;5.20;;;1.30;;
76393;SDS011;65216;51.090;-115.352;2023-02-15T05:49:02;3.40;;;1.20;;
76393;SDS011;65216;51.090;-115.352;2023-02-15T05:51:32;3.50;;;1.30;;
76393;SDS011;65216;51.090;-115.352;2023-02-15T05:54:01;3.00;;;1.10;;
76393;SDS011;65216;51.090;-115.352;2023-02-15T05:56:31;3.30;;;1.30;;
76393;SDS011;65216;51.090;-115.352;2023-02-15T05:58:59;2.80;;;1.10;;
76393;SDS011;65216;51.090;-115.352;2023-02-15T06:01:26;3.80;;;1.10;;
76393;SDS011;65216;51.090;-115.352;2023-02-15T06:03:53;3.80;;;1.20;;
76393;SDS011;65216;51.090;-115.352;2023-02-15T06:06:22;4.80;;;1.20;;
76393;SDS011;65216;51.090;-115.352;2023-02-15T06:08:49;4.60;;;1.20;;
76393;SDS011;65216;51.090;-115.352;2023-02-15T06:11:16;4.30;;;1.10;;
76393;SDS011;65216;51.090;-115.352;2023-02-15T06:13:43;2.60;;;1.10;;
76393;SDS011;65216;51.090;-115.352;2023-02-15T06:16:11;3.30;;;1.10;;
76393;SDS011;65216;51.090;-115.352;2023-02-15T06:18:38;4.30;;;1.30;;
76393;SDS011;65216;51.090;-115.352;2023-02-15T06:21:06;4.50;;;1.30;;
76393;SDS011;65216;51.090;-115.352;2023-02-15T06:23:33;4.20;;;1.20;;
76393;SDS011;65216;51.090;-115.352;2023-02-15T06:26:00;5.40;;;1.60;;
76393;SDS011;65216;51.090;-115.352;2023-02-15T06:28:28;3.90;;;1.20;;
76393;SDS011;65216;51.090;-115.352;2023-02-15T06:30:56;4.60;;;1.30;;
76393;SDS011;65216;51.090;-115.352;2023-02-15T06:33:24;3.60;;;1.10;;
76393;SDS011;65216;51.090;-115.352;2023-02-15T06:35:51;5.50;;;1.40;;
76393;SDS011;65216;51.090;-115.352;2023-02-15T06:38:21;3.00;;;1.10;;
76393;SDS011;65216;51.090;-115.352;2023-02-15T06:40:49;3.20;;;1.10;;
76393;SDS011;65216;51.090;-115.352;2023-02-15T06:43:16;3.80;;;1.30;;
76393;SDS011;65216;51.090;-115.352;2023-02-15T06:45:44;4.90;;;1.30;;
76393;SDS011;65216;51.090;-115.352;2023-02-15T06:48:14;3.50;;;1.20;;
76393;SDS011;65216;51.090;-115.352;2023-02-15T06:50:44;2.30;;;0.90;;
76393;SDS011;65216;51.090;-115.352;2023-02-15T06:53:14;6.90;;;1.30;;
76393;SDS011;65216;51.090;-115.352;2023-02-15T06:55:41;4.30;;;1.10;;
76393;SDS011;65216;51.090;-115.352;2023-02-15T06:58:11;3.00;;;1.10;;
76393;SDS011;65216;51.090;-115.352;2023-02-15T07:00:41;5.70;;;1.20;;
76393;SDS011;65216;51.090;-115.352;2023-02-15T07:03:08;2.40;;;0.90;;
76393;SDS011;65216;51.090;-115.352;2023-02-15T07:05:42;5.60;;;1.20;;
76393;SDS011;65216;51.090;-115.352;2023-02-15T07:08:09;6.20;;;1.30;;
76393;SDS011;65216;51.090;-115.352;2023-02-15T07:10:37;5.10;;;1.20;;
76393;SDS011;65216;51.090;-115.352;2023-02-15T07:13:04;6.80;;;1.50;;
76393;SDS011;65216;51.090;-115.352;2023-02-15T07:15:31;5.10;;;1.20;;
76393;SDS011;65216;51.090;-115.352;2023-02-15T07:17:59;5.10;;;1.30;;
76393;SDS011;65216;51.090;-115.352;2023-02-15T07:20:29;5.90;;;1.00;;
76393;SDS011;65216;51.090;-115.352;2023-02-15T07:22:56;6.90;;;0.90;;
76393;SDS011;65216;51.090;-115.352;2023-02-15T07:25:26;7.00;;;1.00;;
76393;SDS011;65216;51.090;-115.352;2023-02-15T07:28:01;3.00;;;1.10;;
76393;SDS011;65216;51.090;-115.352;2023-02-15T07:30:34;3.20;;;1.10;;
76393;SDS011;65216;51.090;-115.352;2023-02-15T07:33:04;2.80;;;1.00;;
76393;SDS011;65216;51.090;-115.352;2023-02-15T07:35:54;1.90;;;0.80;;
76393;SDS011;65216;51.090;-115.352;2023-02-15T07:38:29;4.50;;;1.00;;
76393;SDS011;65216;51.090;-115.352;2023-02-15T07:41:02;4.40;;;1.10;;
76393;SDS011;65216;51.090;-115.352;2023-02-15T07:43:34;2.90;;;0.80;;
76393;SDS011;65216;51.090;-115.352;2023-02-15T07:46:04;5.70;;;0.90;;
76393;SDS011;65216;51.090;-115.352;2023-02-15T07:48:36;3.10;;;0.80;;
76393;SDS011;65216;51.090;-115.352;2023-02-15T07:51:06;3.20;;;1.00;;
76393;SDS011;65216;51.090;-115.352;2023-02-15T07:53:38;2.00;;;0.60;;
76393;SDS011;65216;51.090;-115.352;2023-02-15T07:56:13;3.30;;;0.80;;
76393;SDS011;65216;51.090;-115.352;2023-02-15T07:58:44;3.40;;;0.70;;
76393;SDS011;65216;51.090;-115.352;2023-02-15T08:01:28;3.70;;;0.60;;
76393;SDS011;65216;51.090;-115.352;2023-02-15T08:04:00;1.10;;;0.60;;
76393;SDS011;65216;51.090;-115.352;2023-02-15T08:06:32;1.40;;;0.60;;
76393;SDS011;65216;51.090;-115.352;2023-02-15T08:09:04;2.00;;;0.60;;
76393;SDS011;65216;51.090;-115.352;2023-02-15T08:11:41;3.30;;;0.60;;
76393;SDS011;65216;51.090;-115.352;2023-02-15T08:14:11;5.20;;;0.90;;
76393;SDS011;65216;51.090;-115.352;2023-02-15T08:16:42;4.60;;;0.90;;
76393;SDS011;65216;51.090;-115.352;2023-02-15T08:19:19;2.20;;;0.70;;
76393;SDS011;65216;51.090;-115.352;2023-02-15T08:21:51;3.50;;;0.80;;
76393;SDS011;65216;51.090;-115.352;2023-02-15T08:24:27;4.30;;;0.50;;
76393;SDS011;65216;51.090;-115.352;2023-02-15T08:26:56;4.40;;;1.00;;
76393;SDS011;65216;51.090;-115.352;2023-02-15T08:29:26;1.80;;;0.60;;
76393;SDS011;65216;51.090;-115.352;2023-02-15T08:31:56;2.80;;;0.70;;
76393;SDS011;65216;51.090;-115.352;2023-02-15T08:34:29;3.20;;;0.60;;
76393;SDS011;65216;51.090;-115.352;2023-02-15T08:36:58;3.00;;;0.60;;
76393;SDS011;65216;51.090;-115.352;2023-02-15T08:39:28;3.30;;;0.60;;
76393;SDS011;65216;51.090;-115.352;2023-02-15T08:41:55;2.40;;;0.60;;
76393;SDS011;65216;51.090;-115.352;2023-02-15T08:44:22;2.90;;;0.50;;
76393;SDS011;65216;51.090;-115.352;2023-02-15T08:46:53;1.30;;;0.60;;
76393;SDS011;65216;51.090;-115.352;2023-02-15T08:49:23;1.60;;;0.50;;
76393;SDS011;65216;51.090;-115.352;2023-02-15T08:51:50;1.40;;;0.30;;
76393;SDS011;65216;51.090;-115.352;2023-02-15T08:54:20;1.80;;;0.50;;
76393;SDS011;65216;51.090;-115.352;2023-02-15T08:56:48;1.50;;;0.50;;
76393;SDS011;65216;51.090;-115.352;2023-02-15T08:59:23;1.10;;;0.40;;
76393;SDS011;65216;51.090;-115.352;2023-02-15T09:01:55;1.80;;;0.40;;
76393;SDS011;65216;51.090;-115.352;2023-02-15T09:04:27;0.80;;;0.30;;
76393;SDS011;65216;51.090;-115.352;2023-02-15T09:07:00;1.70;;;0.40;;
76393;SDS011;65216;51.090;-115.352;2023-02-15T09:09:30;2.60;;;0.40;;
76393;SDS011;65216;51.090;-115.352;2023-02-15T09:11:58;0.60;;;0.40;;
76393;SDS011;65216;51.090;-115.352;2023-02-15T09:14:31;1.40;;;0.50;;
76393;SDS011;65216;51.090;-115.352;2023-02-15T09:17:02;0.90;;;0.40;;
76393;SDS011;65216;51.090;-115.352;2023-02-15T09:19:30;1.50;;;0.50;;
76393;SDS011;65216;51.090;-115.352;2023-02-15T09:21:57;1.60;;;0.50;;
76393;SDS011;65216;51.090;-115.352;2023-02-15T09:24:24;0.50;;;0.30;;
76393;SDS011;65216;51.090;-115.352;2023-02-15T09:26:54;1.50;;;0.40;;
76393;SDS011;65216;51.090;-115.352;2023-02-15T09:29:22;0.40;;;0.30;;
76393;SDS011;65216;51.090;-115.352;2023-02-15T09:31:52;1.00;;;0.30;;
76393;SDS011;65216;51.090;-115.352;2023-02-15T09:34:21;0.30;;;0.20;;
76393;SDS011;65216;51.090;-115.352;2023-02-15T09:36:52;0.80;;;0.30;;
76393;SDS011;65216;51.090;-115.352;2023-02-15T09:39:22;1.30;;;0.30;;
76393;SDS011;65216;51.090;-115.352;2023-02-15T09:53:25;0.70;;;0.40;;
76393;SDS011;65216;51.090;-115.352;2023-02-15T10:08:02;0.50;;;0.20;;
76393;SDS011;65216;51.090;-115.352;2023-02-15T10:14:41;0.80;;;0.30;;
76393;SDS011;65216;51.090;-115.352;2023-02-15T10:26:28;0.20;;;0.20;;
76393;SDS011;65216;51.090;-115.352;2023-02-15T10:31:51;1.70;;;0.40;;
76393;SDS011;65216;51.090;-115.352;2023-02-15T10:34:43;0.80;;;0.30;;
76393;SDS011;65216;51.090;-115.352;2023-02-15T10:37:41;0.60;;;0.30;;
76393;SDS011;65216;51.090;-115.352;2023-02-15T10:40:27;0.40;;;0.30;;
76393;SDS011;65216;51.090;-115.352;2023-02-15T11:00:56;0.30;;;0.20;;
76393;SDS011;65216;51.090;-115.352;2023-02-15T11:03:50;0.40;;;0.20;;
76393;SDS011;65216;51.090;-115.352;2023-02-15T11:06:37;0.40;;;0.30;;
76393;SDS011;65216;51.090;-115.352;2023-02-15T11:09:15;0.40;;;0.30;;
76393;SDS011;65216;51.090;-115.352;2023-02-15T11:11:52;0.20;;;0.20;;
76393;SDS011;65216;51.090;-115.352;2023-02-15T11:14:53;0.80;;;0.30;;
76393;SDS011;65216;51.090;-115.352;2023-02-15T11:37:29;0.10;;;0.10;;
76393;SDS011;65216;51.090;-115.352;2023-02-15T11:40:32;0.20;;;0.20;;
76393;SDS011;65216;51.090;-115.352;2023-02-15T11:43:24;0.70;;;0.30;;
76393;SDS011;65216;51.090;-115.352;2023-02-15T11:46:02;0.30;;;0.10;;
76393;SDS011;65216;51.090;-115.352;2023-02-15T11:48:31;1.20;;;0.70;;
76393;SDS011;65216;51.090;-115.352;2023-02-15T11:51:02;0.20;;;0.10;;
76393;SDS011;65216;51.090;-115.352;2023-02-15T11:53:36;0.20;;;0.20;;
76393;SDS011;65216;51.090;-115.352;2023-02-15T11:56:10;0.60;;;0.30;;
76393;SDS011;65216;51.090;-115.352;2023-02-15T12:01:42;0.20;;;0.20;;
76393;SDS011;65216;51.090;-115.352;2023-02-15T12:07:21;0.60;;;0.30;;
76393;SDS011;65216;51.090;-115.352;2023-02-15T12:13:23;0.20;;;0.20;;
76393;SDS011;65216;51.090;-115.352;2023-02-15T12:15:56;0.50;;;0.20;;
76393;SDS011;65216;51.090;-115.352;2023-02-15T12:21:15;0.50;;;0.20;;
76393;SDS011;65216;51.090;-115.352;2023-02-15T12:23:54;0.30;;;0.20;;
76393;SDS011;65216;51.090;-115.352;2023-02-15T12:29:12;0.30;;;0.10;;
76393;SDS011;65216;51.090;-115.352;2023-02-15T12:31:47;0.20;;;0.10;;
76393;SDS011;65216;51.090;-115.352;2023-02-15T12:34:32;0.40;;;0.20;;
76393;SDS011;65216;51.090;-115.352;2023-02-15T12:37:21;0.50;;;0.20;;
76393;SDS011;65216;51.090;-115.352;2023-02-15T12:39:58;0.40;;;0.30;;
76393;SDS011;65216;51.090;-115.352;2023-02-15T12:42:28;0.10;;;0.10;;
76393;SDS011;65216;51.090;-115.352;2023-02-15T12:45:30;0.40;;;0.20;;
76393;SDS011;65216;51.090;-115.352;2023-02-15T12:48:19;0.10;;;0.10;;
76393;SDS011;65216;51.090;-115.352;2023-02-15T12:50:50;0.30;;;0.20;;
76393;SDS011;65216;51.090;-115.352;2023-02-15T12:53:32;0.40;;;0.20;;
76393;SDS011;65216;51.090;-115.352;2023-02-15T12:56:06;0.60;;;0.20;;
76393;SDS011;65216;51.090;-115.352;2023-02-15T12:58:37;0.40;;;0.30;;
76393;SDS011;65216;51.090;-115.352;2023-02-15T13:01:25;0.50;;;0.20;;
76393;SDS011;65216;51.090;-115.352;2023-02-15T13:06:35;0.10;;;0.10;;
76393;SDS011;65216;51.090;-115.352;2023-02-15T13:11:46;1.10;;;0.20;;
76393;SDS011;65216;51.090;-115.352;2023-02-15T13:14:19;0.20;;;0.10;;
76393;SDS011;65216;51.090;-115.352;2023-02-15T13:16:58;1.20;;;0.20;;
76393;SDS011;65216;51.090;-115.352;2023-02-15T13:20:00;0.40;;;0.30;;
76393;SDS011;65216;51.090;-115.352;2023-02-15T13:22:43;0.20;;;0.20;;
76393;SDS011;65216;51.090;-115.352;2023-02-15T13:28:00;1.90;;;0.10;;
76393;SDS011;65216;51.090;-115.352;2023-02-15T13:33:08;0.20;;;0.20;;
76393;SDS011;65216;51.090;-115.352;2023-02-15T13:41:17;0.40;;;0.20;;
76393;SDS011;65216;51.090;-115.352;2023-02-15T13:44:45;0.10;;;0.10;;
76393;SDS011;65216;51.090;-115.352;2023-02-15T13:47:55;1.20;;;0.30;;
76393;SDS011;65216;51.090;-115.352;2023-02-15T13:53:39;0.50;;;0.30;;
76393;SDS011;65216;51.090;-115.352;2023-02-15T13:59:19;0.70;;;0.40;;
76393;SDS011;65216;51.090;-115.352;2023-02-15T14:06:34;0.60;;;0.30;;
76393;SDS011;65216;51.090;-115.352;2023-02-15T14:12:34;0.80;;;0.40;;
76393;SDS011;65216;51.090;-115.352;2023-02-15T14:29:57;0.90;;;0.20;;
76393;SDS011;65216;51.090;-115.352;2023-02-15T14:32:45;0.20;;;0.10;;
76393;SDS011;65216;51.090;-115.352;2023-02-15T14:35:21;0.90;;;0.30;;
76393;SDS011;65216;51.090;-115.352;2023-02-15T14:37:58;0.40;;;0.20;;
76393;SDS011;65216;51.090;-115.352;2023-02-15T14:51:58;0.90;;;0.30;;
76393;SDS011;65216;51.090;-115.352;2023-02-15T14:59:45;0.70;;;0.30;;
76393;SDS011;65216;51.090;-115.352;2023-02-15T15:07:49;0.80;;;0.20;;
76393;SDS011;65216;51.090;-115.352;2023-02-15T15:12:51;0.90;;;0.30;;
76393;SDS011;65216;51.090;-115.352;2023-02-15T15:17:57;1.60;;;0.30;;
76393;SDS011;65216;51.090;-115.352;2023-02-15T15:28:55;1.30;;;0.20;;
76393;SDS011;65216;51.090;-115.352;2023-02-15T15:37:30;1.20;;;0.30;;
76393;SDS011;65216;51.090;-115.352;2023-02-15T15:46:33;1.30;;;0.20;;
76393;SDS011;65216;51.090;-115.352;2023-02-15T15:49:24;1.60;;;0.20;;
76393;SDS011;65216;51.090;-115.352;2023-02-15T15:52:18;1.10;;;0.30;;
76393;SDS011;65216;51.090;-115.352;2023-02-15T15:54:51;2.90;;;0.30;;
76393;SDS011;65216;51.090;-115.352;2023-02-15T15:57:32;2.90;;;0.40;;
76393;SDS011;65216;51.090;-115.352;2023-02-15T16:00:05;1.50;;;0.50;;
76393;SDS011;65216;51.090;-115.352;2023-02-15T16:03:27;2.80;;;0.40;;
76393;SDS011;65216;51.090;-115.352;2023-02-15T16:05:58;3.90;;;0.50;;
76393;SDS011;65216;51.090;-115.352;2023-02-15T16:08:35;2.90;;;0.40;;
76393;SDS011;65216;51.090;-115.352;2023-02-15T16:11:14;4.40;;;0.40;;
76393;SDS011;65216;51.090;-115.352;2023-02-15T16:13:43;2.00;;;0.40;;
76393;SDS011;65216;51.090;-115.352;2023-02-15T16:16:21;3.20;;;0.40;;
76393;SDS011;65216;51.090;-115.352;2023-02-15T16:18:52;1.50;;;0.30;;
76393;SDS011;65216;51.090;-115.352;2023-02-15T16:21:23;2.00;;;0.50;;
76393;SDS011;65216;51.090;-115.352;2023-02-15T16:24:22;1.90;;;0.50;;
76393;SDS011;65216;51.090;-115.352;2023-02-15T16:27:22;2.80;;;0.40;;
76393;SDS011;65216;51.090;-115.352;2023-02-15T16:32:47;2.10;;;0.30;;
76393;SDS011;65216;51.090;-115.352;2023-02-15T16:35:17;1.30;;;0.30;;
76393;SDS011;65216;51.090;-115.352;2023-02-15T16:37:48;3.10;;;0.40;;
76393;SDS011;65216;51.090;-115.352;2023-02-15T16:40:40;1.80;;;0.50;;
76393;SDS011;65216;51.090;-115.352;2023-02-15T16:43:22;2.20;;;0.40;;
76393;SDS011;65216;51.090;-115.352;2023-02-15T16:46:12;2.70;;;0.40;;
76393;SDS011;65216;51.090;-115.352;2023-02-15T16:48:48;3.10;;;0.50;;
76393;SDS011;65216;51.090;-115.352;2023-02-15T16:51:23;4.90;;;0.60;;
76393;SDS011;65216;51.090;-115.352;2023-02-15T16:53:55;2.40;;;0.50;;
76393;SDS011;65216;51.090;-115.352;2023-02-15T16:56:29;3.40;;;0.60;;
76393;SDS011;65216;51.090;-115.352;2023-02-15T16:59:01;2.80;;;0.40;;
76393;SDS011;65216;51.090;-115.352;2023-02-15T17:01:32;4.40;;;0.30;;
76393;SDS011;65216;51.090;-115.352;2023-02-15T17:04:38;2.80;;;0.70;;
76393;SDS011;65216;51.090;-115.352;2023-02-15T17:07:18;1.20;;;0.40;;
76393;SDS011;65216;51.090;-115.352;2023-02-15T17:09:51;6.90;;;1.00;;
76393;SDS011;65216;51.090;-115.352;2023-02-15T17:12:47;1.80;;;0.40;;
76393;SDS011;65216;51.090;-115.352;2023-02-15T17:18:28;2.90;;;0.60;;
76393;SDS011;65216;51.090;-115.352;2023-02-15T17:21:10;3.90;;;0.60;;
76393;SDS011;65216;51.090;-115.352;2023-02-15T17:23:45;6.80;;;0.80;;
76393;SDS011;65216;51.090;-115.352;2023-02-15T17:28:56;7.80;;;0.90;;
76393;SDS011;65216;51.090;-115.352;2023-02-15T17:33:59;3.60;;;0.60;;
76393;SDS011;65216;51.090;-115.352;2023-02-15T17:36:29;4.40;;;0.60;;
76393;SDS011;65216;51.090;-115.352;2023-02-15T17:41:29;8.20;;;0.80;;
76393;SDS011;65216;51.090;-115.352;2023-02-15T17:44:01;3.20;;;0.80;;
76393;SDS011;65216;51.090;-115.352;2023-02-15T17:46:40;3.00;;;0.60;;
76393;SDS011;65216;51.090;-115.352;2023-02-15T17:49:21;5.10;;;0.70;;
76393;SDS011;65216;51.090;-115.352;2023-02-15T17:51:55;10.70;;;0.80;;
76393;SDS011;65216;51.090;-115.352;2023-02-15T17:54:23;4.40;;;0.80;;
76393;SDS011;65216;51.090;-115.352;2023-02-15T17:57:15;4.80;;;1.00;;
76393;SDS011;65216;51.090;-115.352;2023-02-15T17:59:44;6.20;;;0.80;;
76393;SDS011;65216;51.090;-115.352;2023-02-15T18:02:33;6.00;;;0.80;;
76393;SDS011;65216;51.090;-115.352;2023-02-15T18:05:20;7.90;;;1.00;;
76393;SDS011;65216;51.090;-115.352;2023-02-15T18:08:14;3.90;;;0.70;;
76393;SDS011;65216;51.090;-115.352;2023-02-15T18:11:01;4.00;;;0.60;;
76393;SDS011;65216;51.090;-115.352;2023-02-15T18:13:47;4.60;;;0.80;;
76393;SDS011;65216;51.090;-115.352;2023-02-15T18:16:16;5.80;;;0.80;;
76393;SDS011;65216;51.090;-115.352;2023-02-15T18:18:48;4.70;;;0.90;;
76393;SDS011;65216;51.090;-115.352;2023-02-15T18:21:23;6.60;;;0.90;;
76393;SDS011;65216;51.090;-115.352;2023-02-15T18:23:50;9.50;;;1.10;;
76393;SDS011;65216;51.090;-115.352;2023-02-15T18:26:21;9.50;;;1.40;;
76393;SDS011;65216;51.090;-115.352;2023-02-15T18:28:52;5.30;;;0.80;;
76393;SDS011;65216;51.090;-115.352;2023-02-15T18:31:20;4.60;;;0.70;;
76393;SDS011;65216;51.090;-115.352;2023-02-15T18:33:57;10.00;;;1.00;;
76393;SDS011;65216;51.090;-115.352;2023-02-15T18:39:37;7.40;;;1.10;;
76393;SDS011;65216;51.090;-115.352;2023-02-15T18:42:23;5.00;;;0.90;;
76393;SDS011;65216;51.090;-115.352;2023-02-15T18:44:55;6.20;;;1.10;;